sensor_id;sensor_type;location;lat;lon;timestamp;P1;durP1;ratioP1;P2;durP2;ratioP2
80272;SDS011;69574;45.328;9.598;2023-12-20T00:01:44;28.85;;;20.05;;
80272;SDS011;69574;45.328;9.598;2023-12-20T00:04:11;27.30;;;19.73;;
80272;SDS011;69574;45.328;9.598;2023-12-20T00:06:37;25.88;;;18.52;;
80272;SDS011;69574;45.328;9.598;2023-12-20T00:09:03;26.42;;;18.15;;
80272;SDS011;69574;45.328;9.598;2023-12-20T00:11:28;25.13;;;17.17;;
80272;SDS011;69574;45.328;9.598;2023-12-20T00:13:54;24.88;;;18.42;;
80272;SDS011;69574;45.328;9.598;2023-12-20T00:16:20;26.45;;;18.42;;
80272;SDS011;69574;45.328;9.598;2023-12-20T00:18:45;28.25;;;19.02;;
80272;SDS011;69574;45.328;9.598;2023-12-20T00:21:12;26.73;;;18.45;;
80272;SDS011;69574;45.328;9.598;2023-12-20T00:23:38;25.60;;;18.23;;
80272;SDS011;69574;45.328;9.598;2023-12-20T00:26:03;25.33;;;17.60;;
80272;SDS011;69574;45.328;9.598;2023-12-20T00:28:29;26.70;;;18.20;;
80272;SDS011;69574;45.328;9.598;2023-12-20T00:30:55;28.35;;;19.65;;
80272;SDS011;69574;45.328;9.598;2023-12-20T00:33:21;27.80;;;18.52;;
80272;SDS011;69574;45.328;9.598;2023-12-20T00:35:46;28.65;;;19.65;;
80272;SDS011;69574;45.328;9.598;2023-12-20T00:38:13;28.52;;;18.77;;
80272;SDS011;69574;45.328;9.598;2023-12-20T00:40:39;26.63;;;19.13;;
80272;SDS011;69574;45.328;9.598;2023-12-20T00:43:05;28.30;;;18.63;;
80272;SDS011;69574;45.328;9.598;2023-12-20T00:45:31;27.23;;;18.30;;
80272;SDS011;69574;45.328;9.598;2023-12-20T00:47:56;26.75;;;18.15;;
80272;SDS011;69574;45.328;9.598;2023-12-20T00:50:22;24.23;;;17.33;;
80272;SDS011;69574;45.328;9.598;2023-12-20T00:52:48;23.80;;;17.60;;
80272;SDS011;69574;45.328;9.598;2023-12-20T00:55:15;26.65;;;18.70;;
80272;SDS011;69574;45.328;9.598;2023-12-20T00:57:40;31.70;;;19.23;;
80272;SDS011;69574;45.328;9.598;2023-12-20T01:00:06;24.27;;;17.40;;
80272;SDS011;69574;45.328;9.598;2023-12-20T01:02:34;53.95;;;19.83;;
80272;SDS011;69574;45.328;9.598;2023-12-20T01:05:00;29.48;;;19.67;;
80272;SDS011;69574;45.328;9.598;2023-12-20T01:07:26;38.70;;;19.38;;
80272;SDS011;69574;45.328;9.598;2023-12-20T01:09:51;30.70;;;20.45;;
80272;SDS011;69574;45.328;9.598;2023-12-20T01:12:18;38.42;;;19.13;;
80272;SDS011;69574;45.328;9.598;2023-12-20T01:14:45;34.47;;;20.10;;
80272;SDS011;69574;45.328;9.598;2023-12-20T01:17:11;32.03;;;20.98;;
80272;SDS011;69574;45.328;9.598;2023-12-20T01:19:36;31.13;;;22.45;;
80272;SDS011;69574;45.328;9.598;2023-12-20T01:22:02;32.72;;;21.50;;
80272;SDS011;69574;45.328;9.598;2023-12-20T01:24:28;32.55;;;22.73;;
80272;SDS011;69574;45.328;9.598;2023-12-20T01:26:54;33.75;;;23.17;;
80272;SDS011;69574;45.328;9.598;2023-12-20T01:29:21;29.88;;;19.77;;
80272;SDS011;69574;45.328;9.598;2023-12-20T01:31:47;30.45;;;20.80;;
80272;SDS011;69574;45.328;9.598;2023-12-20T01:34:12;29.27;;;20.17;;
80272;SDS011;69574;45.328;9.598;2023-12-20T01:36:38;28.70;;;19.90;;
80272;SDS011;69574;45.328;9.598;2023-12-20T01:39:04;27.50;;;19.25;;
80272;SDS011;69574;45.328;9.598;2023-12-20T01:41:29;29.10;;;19.85;;
80272;SDS011;69574;45.328;9.598;2023-12-20T01:43:55;27.95;;;18.70;;
80272;SDS011;69574;45.328;9.598;2023-12-20T01:46:22;28.50;;;19.33;;
80272;SDS011;69574;45.328;9.598;2023-12-20T01:48:48;24.92;;;18.80;;
80272;SDS011;69574;45.328;9.598;2023-12-20T01:51:14;26.15;;;19.08;;
80272;SDS011;69574;45.328;9.598;2023-12-20T01:53:40;26.25;;;19.13;;
80272;SDS011;69574;45.328;9.598;2023-12-20T01:56:06;24.95;;;18.10;;
80272;SDS011;69574;45.328;9.598;2023-12-20T01:58:32;27.90;;;19.70;;
80272;SDS011;69574;45.328;9.598;2023-12-20T02:00:58;32.15;;;20.27;;
80272;SDS011;69574;45.328;9.598;2023-12-20T02:03:25;32.90;;;19.75;;
80272;SDS011;69574;45.328;9.598;2023-12-20T02:05:51;34.88;;;21.52;;
80272;SDS011;69574;45.328;9.598;2023-12-20T02:08:16;31.38;;;21.10;;
80272;SDS011;69574;45.328;9.598;2023-12-20T02:10:42;31.75;;;20.92;;
80272;SDS011;69574;45.328;9.598;2023-12-20T02:13:08;29.30;;;20.33;;
80272;SDS011;69574;45.328;9.598;2023-12-20T02:15:34;30.35;;;18.55;;
80272;SDS011;69574;45.328;9.598;2023-12-20T02:18:02;32.13;;;21.15;;
80272;SDS011;69574;45.328;9.598;2023-12-20T02:20:29;26.80;;;18.38;;
80272;SDS011;69574;45.328;9.598;2023-12-20T02:22:56;30.58;;;20.10;;
80272;SDS011;69574;45.328;9.598;2023-12-20T02:25:22;31.27;;;19.58;;
80272;SDS011;69574;45.328;9.598;2023-12-20T02:27:48;26.52;;;19.45;;
80272;SDS011;69574;45.328;9.598;2023-12-20T02:30:14;28.80;;;20.40;;
80272;SDS011;69574;45.328;9.598;2023-12-20T02:32:40;31.23;;;20.75;;
80272;SDS011;69574;45.328;9.598;2023-12-20T02:35:06;28.83;;;19.33;;
80272;SDS011;69574;45.328;9.598;2023-12-20T02:37:32;27.98;;;18.58;;
80272;SDS011;69574;45.328;9.598;2023-12-20T02:39:59;29.42;;;19.15;;
80272;SDS011;69574;45.328;9.598;2023-12-20T02:42:25;30.85;;;21.27;;
80272;SDS011;69574;45.328;9.598;2023-12-20T02:44:50;29.27;;;20.80;;
80272;SDS011;69574;45.328;9.598;2023-12-20T02:47:16;31.38;;;20.42;;
80272;SDS011;69574;45.328;9.598;2023-12-20T02:49:42;29.10;;;20.15;;
80272;SDS011;69574;45.328;9.598;2023-12-20T02:52:08;27.92;;;20.30;;
80272;SDS011;69574;45.328;9.598;2023-12-20T02:54:33;30.13;;;20.35;;
80272;SDS011;69574;45.328;9.598;2023-12-20T02:57:00;29.27;;;19.92;;
80272;SDS011;69574;45.328;9.598;2023-12-20T02:59:26;26.75;;;18.80;;
80272;SDS011;69574;45.328;9.598;2023-12-20T03:01:52;30.85;;;19.88;;
80272;SDS011;69574;45.328;9.598;2023-12-20T03:04:17;30.48;;;20.33;;
80272;SDS011;69574;45.328;9.598;2023-12-20T03:06:43;31.42;;;21.85;;
80272;SDS011;69574;45.328;9.598;2023-12-20T03:09:09;31.65;;;20.95;;
80272;SDS011;69574;45.328;9.598;2023-12-20T03:11:34;33.92;;;20.60;;
80272;SDS011;69574;45.328;9.598;2023-12-20T03:14:01;31.90;;;21.13;;
80272;SDS011;69574;45.328;9.598;2023-12-20T03:16:27;33.80;;;21.05;;
80272;SDS011;69574;45.328;9.598;2023-12-20T03:18:53;34.85;;;22.58;;
80272;SDS011;69574;45.328;9.598;2023-12-20T03:21:19;37.55;;;24.55;;
80272;SDS011;69574;45.328;9.598;2023-12-20T03:23:44;40.47;;;24.10;;
80272;SDS011;69574;45.328;9.598;2023-12-20T03:26:10;38.55;;;23.50;;
80272;SDS011;69574;45.328;9.598;2023-12-20T03:28:36;37.90;;;23.73;;
80272;SDS011;69574;45.328;9.598;2023-12-20T03:31:03;37.70;;;23.83;;
80272;SDS011;69574;45.328;9.598;2023-12-20T03:33:29;36.90;;;23.30;;
80272;SDS011;69574;45.328;9.598;2023-12-20T03:35:54;35.75;;;21.50;;
80272;SDS011;69574;45.328;9.598;2023-12-20T03:38:20;31.92;;;22.48;;
80272;SDS011;69574;45.328;9.598;2023-12-20T03:40:46;31.00;;;21.35;;
80272;SDS011;69574;45.328;9.598;2023-12-20T03:43:11;34.55;;;21.00;;
80272;SDS011;69574;45.328;9.598;2023-12-20T03:45:37;33.33;;;22.58;;
80272;SDS011;69574;45.328;9.598;2023-12-20T03:48:05;33.40;;;22.50;;
80272;SDS011;69574;45.328;9.598;2023-12-20T03:50:31;35.13;;;21.67;;
80272;SDS011;69574;45.328;9.598;2023-12-20T03:52:57;33.38;;;21.63;;
80272;SDS011;69574;45.328;9.598;2023-12-20T03:55:22;37.13;;;22.67;;
80272;SDS011;69574;45.328;9.598;2023-12-20T03:57:49;36.58;;;23.10;;
80272;SDS011;69574;45.328;9.598;2023-12-20T04:00:15;37.92;;;24.73;;
80272;SDS011;69574;45.328;9.598;2023-12-20T04:02:41;30.77;;;21.17;;
80272;SDS011;69574;45.328;9.598;2023-12-20T04:05:09;38.17;;;22.42;;
80272;SDS011;69574;45.328;9.598;2023-12-20T04:07:35;33.97;;;22.38;;
80272;SDS011;69574;45.328;9.598;2023-12-20T04:10:00;36.13;;;23.35;;
80272;SDS011;69574;45.328;9.598;2023-12-20T04:12:26;32.85;;;21.58;;
80272;SDS011;69574;45.328;9.598;2023-12-20T04:14:52;32.88;;;21.33;;
80272;SDS011;69574;45.328;9.598;2023-12-20T04:17:18;35.05;;;22.63;;
80272;SDS011;69574;45.328;9.598;2023-12-20T04:19:43;35.75;;;22.88;;
80272;SDS011;69574;45.328;9.598;2023-12-20T04:22:10;35.08;;;23.20;;
80272;SDS011;69574;45.328;9.598;2023-12-20T04:24:36;34.28;;;22.13;;
80272;SDS011;69574;45.328;9.598;2023-12-20T04:27:02;36.90;;;22.77;;
80272;SDS011;69574;45.328;9.598;2023-12-20T04:29:28;37.13;;;23.75;;
80272;SDS011;69574;45.328;9.598;2023-12-20T04:31:53;40.92;;;25.33;;
80272;SDS011;69574;45.328;9.598;2023-12-20T04:34:19;36.55;;;24.48;;
80272;SDS011;69574;45.328;9.598;2023-12-20T04:36:45;37.17;;;24.35;;
80272;SDS011;69574;45.328;9.598;2023-12-20T04:39:12;40.15;;;24.77;;
80272;SDS011;69574;45.328;9.598;2023-12-20T04:44:03;35.93;;;21.20;;
80272;SDS011;69574;45.328;9.598;2023-12-20T04:46:29;32.28;;;20.05;;
80272;SDS011;69574;45.328;9.598;2023-12-20T04:48:55;36.17;;;21.95;;
80272;SDS011;69574;45.328;9.598;2023-12-20T04:51:21;28.50;;;19.42;;
80272;SDS011;69574;45.328;9.598;2023-12-20T04:53:46;32.50;;;20.42;;
80272;SDS011;69574;45.328;9.598;2023-12-20T04:56:14;30.40;;;21.52;;
80272;SDS011;69574;45.328;9.598;2023-12-20T04:58:39;31.75;;;21.52;;
80272;SDS011;69574;45.328;9.598;2023-12-20T05:01:05;33.25;;;20.45;;
80272;SDS011;69574;45.328;9.598;2023-12-20T05:03:31;33.03;;;20.10;;
80272;SDS011;69574;45.328;9.598;2023-12-20T05:05:56;31.98;;;21.10;;
80272;SDS011;69574;45.328;9.598;2023-12-20T05:08:22;36.80;;;22.38;;
80272;SDS011;69574;45.328;9.598;2023-12-20T05:10:48;33.03;;;21.85;;
80272;SDS011;69574;45.328;9.598;2023-12-20T05:13:15;32.83;;;21.85;;
80272;SDS011;69574;45.328;9.598;2023-12-20T05:15:41;32.38;;;21.70;;
80272;SDS011;69574;45.328;9.598;2023-12-20T05:18:06;36.63;;;22.98;;
80272;SDS011;69574;45.328;9.598;2023-12-20T05:20:32;34.25;;;22.15;;
80272;SDS011;69574;45.328;9.598;2023-12-20T05:22:57;33.35;;;22.73;;
80272;SDS011;69574;45.328;9.598;2023-12-20T05:25:23;38.05;;;24.05;;
80272;SDS011;69574;45.328;9.598;2023-12-20T05:27:49;33.88;;;21.58;;
80272;SDS011;69574;45.328;9.598;2023-12-20T05:30:16;33.95;;;23.02;;
80272;SDS011;69574;45.328;9.598;2023-12-20T05:32:42;33.38;;;21.30;;
80272;SDS011;69574;45.328;9.598;2023-12-20T05:35:07;35.90;;;23.05;;
80272;SDS011;69574;45.328;9.598;2023-12-20T05:37:33;34.10;;;23.02;;
80272;SDS011;69574;45.328;9.598;2023-12-20T05:39:59;34.53;;;21.92;;
80272;SDS011;69574;45.328;9.598;2023-12-20T05:42:24;35.28;;;22.15;;
80272;SDS011;69574;45.328;9.598;2023-12-20T05:44:50;36.03;;;22.17;;
80272;SDS011;69574;45.328;9.598;2023-12-20T05:47:17;35.67;;;23.40;;
80272;SDS011;69574;45.328;9.598;2023-12-20T05:49:43;38.28;;;21.95;;
80272;SDS011;69574;45.328;9.598;2023-12-20T05:52:09;37.47;;;23.85;;
80272;SDS011;69574;45.328;9.598;2023-12-20T05:54:34;38.17;;;22.73;;
80272;SDS011;69574;45.328;9.598;2023-12-20T05:57:00;38.22;;;23.65;;
80272;SDS011;69574;45.328;9.598;2023-12-20T05:59:26;32.85;;;21.95;;
80272;SDS011;69574;45.328;9.598;2023-12-20T06:01:52;35.03;;;22.38;;
80272;SDS011;69574;45.328;9.598;2023-12-20T06:04:19;40.03;;;24.33;;
80272;SDS011;69574;45.328;9.598;2023-12-20T06:06:44;41.25;;;26.10;;
80272;SDS011;69574;45.328;9.598;2023-12-20T06:09:10;41.10;;;23.80;;
80272;SDS011;69574;45.328;9.598;2023-12-20T06:11:36;38.97;;;24.98;;
80272;SDS011;69574;45.328;9.598;2023-12-20T06:14:02;41.70;;;25.27;;
80272;SDS011;69574;45.328;9.598;2023-12-20T06:16:27;40.35;;;25.35;;
80272;SDS011;69574;45.328;9.598;2023-12-20T06:18:53;46.63;;;27.42;;
80272;SDS011;69574;45.328;9.598;2023-12-20T06:21:20;38.28;;;25.02;;
80272;SDS011;69574;45.328;9.598;2023-12-20T06:23:46;40.55;;;24.38;;
80272;SDS011;69574;45.328;9.598;2023-12-20T06:26:11;39.53;;;25.90;;
80272;SDS011;69574;45.328;9.598;2023-12-20T06:28:37;37.47;;;23.75;;
80272;SDS011;69574;45.328;9.598;2023-12-20T06:31:03;43.28;;;23.73;;
80272;SDS011;69574;45.328;9.598;2023-12-20T06:33:29;40.17;;;24.20;;
80272;SDS011;69574;45.328;9.598;2023-12-20T06:35:56;39.05;;;24.50;;
80272;SDS011;69574;45.328;9.598;2023-12-20T06:38:23;39.50;;;24.33;;
80272;SDS011;69574;45.328;9.598;2023-12-20T06:40:49;37.67;;;23.85;;
80272;SDS011;69574;45.328;9.598;2023-12-20T06:43:14;39.33;;;23.65;;
80272;SDS011;69574;45.328;9.598;2023-12-20T06:45:40;39.97;;;25.60;;
80272;SDS011;69574;45.328;9.598;2023-12-20T06:48:06;40.38;;;24.60;;
80272;SDS011;69574;45.328;9.598;2023-12-20T06:50:32;41.00;;;24.73;;
80272;SDS011;69574;45.328;9.598;2023-12-20T06:52:57;40.33;;;26.48;;
80272;SDS011;69574;45.328;9.598;2023-12-20T06:55:24;46.95;;;28.35;;
80272;SDS011;69574;45.328;9.598;2023-12-20T06:57:50;44.88;;;26.35;;
80272;SDS011;69574;45.328;9.598;2023-12-20T07:00:16;37.53;;;24.65;;
80272;SDS011;69574;45.328;9.598;2023-12-20T07:02:43;42.60;;;27.10;;
80272;SDS011;69574;45.328;9.598;2023-12-20T07:05:09;42.03;;;24.42;;
80272;SDS011;69574;45.328;9.598;2023-12-20T07:07:35;37.88;;;24.05;;
80272;SDS011;69574;45.328;9.598;2023-12-20T07:10:00;42.83;;;25.35;;
80272;SDS011;69574;45.328;9.598;2023-12-20T07:12:27;43.58;;;26.63;;
80272;SDS011;69574;45.328;9.598;2023-12-20T07:14:53;44.33;;;26.35;;
80272;SDS011;69574;45.328;9.598;2023-12-20T07:17:19;44.10;;;27.77;;
80272;SDS011;69574;45.328;9.598;2023-12-20T07:19:45;41.15;;;25.67;;
80272;SDS011;69574;45.328;9.598;2023-12-20T07:22:10;38.33;;;25.33;;
80272;SDS011;69574;45.328;9.598;2023-12-20T07:24:36;42.92;;;25.15;;
80272;SDS011;69574;45.328;9.598;2023-12-20T07:27:02;41.03;;;24.92;;
80272;SDS011;69574;45.328;9.598;2023-12-20T07:29:29;35.20;;;21.70;;
80272;SDS011;69574;45.328;9.598;2023-12-20T07:31:55;40.47;;;24.85;;
80272;SDS011;69574;45.328;9.598;2023-12-20T07:34:20;38.47;;;24.58;;
80272;SDS011;69574;45.328;9.598;2023-12-20T07:36:46;39.58;;;25.20;;
80272;SDS011;69574;45.328;9.598;2023-12-20T07:39:12;38.30;;;23.67;;
80272;SDS011;69574;45.328;9.598;2023-12-20T07:41:37;36.42;;;22.85;;
80272;SDS011;69574;45.328;9.598;2023-12-20T07:44:03;35.92;;;21.70;;
80272;SDS011;69574;45.328;9.598;2023-12-20T07:46:31;29.85;;;20.73;;
80272;SDS011;69574;45.328;9.598;2023-12-20T07:48:56;31.85;;;20.67;;
80272;SDS011;69574;45.328;9.598;2023-12-20T07:51:22;37.13;;;21.60;;
80272;SDS011;69574;45.328;9.598;2023-12-20T07:53:48;39.35;;;22.75;;
80272;SDS011;69574;45.328;9.598;2023-12-20T07:56:14;43.58;;;29.67;;
80272;SDS011;69574;45.328;9.598;2023-12-20T07:58:39;36.25;;;25.10;;
80272;SDS011;69574;45.328;9.598;2023-12-20T08:01:05;32.88;;;22.58;;
80272;SDS011;69574;45.328;9.598;2023-12-20T08:03:32;36.78;;;22.98;;
80272;SDS011;69574;45.328;9.598;2023-12-20T08:05:58;36.38;;;24.35;;
80272;SDS011;69574;45.328;9.598;2023-12-20T08:08:24;37.28;;;25.88;;
80272;SDS011;69574;45.328;9.598;2023-12-20T08:10:50;35.90;;;23.42;;
80272;SDS011;69574;45.328;9.598;2023-12-20T08:13:16;39.95;;;23.85;;
80272;SDS011;69574;45.328;9.598;2023-12-20T08:15:41;35.58;;;23.63;;
80272;SDS011;69574;45.328;9.598;2023-12-20T08:18:07;37.25;;;24.42;;
80272;SDS011;69574;45.328;9.598;2023-12-20T08:20:34;37.33;;;24.30;;
80272;SDS011;69574;45.328;9.598;2023-12-20T08:23:00;38.78;;;24.10;;
80272;SDS011;69574;45.328;9.598;2023-12-20T08:25:26;38.22;;;23.10;;
80272;SDS011;69574;45.328;9.598;2023-12-20T08:27:52;37.22;;;23.20;;
80272;SDS011;69574;45.328;9.598;2023-12-20T08:30:18;39.25;;;23.45;;
80272;SDS011;69574;45.328;9.598;2023-12-20T08:32:47;38.35;;;24.10;;
80272;SDS011;69574;45.328;9.598;2023-12-20T08:35:12;38.10;;;23.27;;
80272;SDS011;69574;45.328;9.598;2023-12-20T08:37:39;37.90;;;23.00;;
80272;SDS011;69574;45.328;9.598;2023-12-20T08:40:05;35.78;;;23.05;;
80272;SDS011;69574;45.328;9.598;2023-12-20T08:42:31;36.55;;;22.92;;
80272;SDS011;69574;45.328;9.598;2023-12-20T08:44:57;34.53;;;22.10;;
80272;SDS011;69574;45.328;9.598;2023-12-20T08:47:23;37.35;;;21.52;;
80272;SDS011;69574;45.328;9.598;2023-12-20T08:49:49;37.17;;;22.13;;
80272;SDS011;69574;45.328;9.598;2023-12-20T08:52:15;33.38;;;20.35;;
80272;SDS011;69574;45.328;9.598;2023-12-20T08:54:42;33.28;;;21.02;;
80272;SDS011;69574;45.328;9.598;2023-12-20T08:57:07;32.90;;;20.30;;
80272;SDS011;69574;45.328;9.598;2023-12-20T08:59:33;37.00;;;22.30;;
80272;SDS011;69574;45.328;9.598;2023-12-20T09:01:59;36.70;;;22.50;;
80272;SDS011;69574;45.328;9.598;2023-12-20T09:04:24;33.92;;;21.70;;
80272;SDS011;69574;45.328;9.598;2023-12-20T09:06:50;38.00;;;22.30;;
80272;SDS011;69574;45.328;9.598;2023-12-20T09:09:16;35.53;;;22.95;;
80272;SDS011;69574;45.328;9.598;2023-12-20T09:11:43;36.70;;;22.67;;
80272;SDS011;69574;45.328;9.598;2023-12-20T09:14:11;33.30;;;21.77;;
80272;SDS011;69574;45.328;9.598;2023-12-20T09:16:37;34.53;;;23.55;;
80272;SDS011;69574;45.328;9.598;2023-12-20T09:19:02;37.03;;;22.48;;
80272;SDS011;69574;45.328;9.598;2023-12-20T09:21:28;37.40;;;22.27;;
80272;SDS011;69574;45.328;9.598;2023-12-20T09:23:54;40.58;;;23.40;;
80272;SDS011;69574;45.328;9.598;2023-12-20T09:26:20;37.05;;;21.42;;
80272;SDS011;69574;45.328;9.598;2023-12-20T09:28:47;35.92;;;23.80;;
80272;SDS011;69574;45.328;9.598;2023-12-20T09:31:13;38.03;;;23.70;;
80272;SDS011;69574;45.328;9.598;2023-12-20T09:33:39;37.72;;;23.17;;
80272;SDS011;69574;45.328;9.598;2023-12-20T09:36:04;36.88;;;22.70;;
80272;SDS011;69574;45.328;9.598;2023-12-20T09:38:30;41.78;;;23.63;;
80272;SDS011;69574;45.328;9.598;2023-12-20T09:40:56;42.10;;;24.70;;
80272;SDS011;69574;45.328;9.598;2023-12-20T09:43:23;37.85;;;23.92;;
80272;SDS011;69574;45.328;9.598;2023-12-20T09:45:52;40.00;;;24.88;;
80272;SDS011;69574;45.328;9.598;2023-12-20T09:48:18;42.78;;;23.77;;
80272;SDS011;69574;45.328;9.598;2023-12-20T09:50:46;40.83;;;22.98;;
80272;SDS011;69574;45.328;9.598;2023-12-20T09:53:14;40.67;;;23.48;;
80272;SDS011;69574;45.328;9.598;2023-12-20T09:55:40;39.40;;;24.27;;
80272;SDS011;69574;45.328;9.598;2023-12-20T09:58:06;41.05;;;24.92;;
80272;SDS011;69574;45.328;9.598;2023-12-20T10:00:33;41.40;;;24.80;;
80272;SDS011;69574;45.328;9.598;2023-12-20T10:03:01;47.42;;;27.13;;
80272;SDS011;69574;45.328;9.598;2023-12-20T10:05:27;43.33;;;23.90;;
80272;SDS011;69574;45.328;9.598;2023-12-20T10:07:53;41.85;;;23.83;;
80272;SDS011;69574;45.328;9.598;2023-12-20T10:10:18;41.97;;;25.73;;
80272;SDS011;69574;45.328;9.598;2023-12-20T10:13:00;38.35;;;23.80;;
80272;SDS011;69574;45.328;9.598;2023-12-20T10:15:26;42.17;;;24.00;;
80272;SDS011;69574;45.328;9.598;2023-12-20T10:17:52;43.50;;;24.67;;
80272;SDS011;69574;45.328;9.598;2023-12-20T10:20:19;42.97;;;27.00;;
80272;SDS011;69574;45.328;9.598;2023-12-20T10:22:44;43.22;;;26.75;;
80272;SDS011;69574;45.328;9.598;2023-12-20T10:25:11;46.35;;;26.35;;
80272;SDS011;69574;45.328;9.598;2023-12-20T10:27:37;44.28;;;26.67;;
80272;SDS011;69574;45.328;9.598;2023-12-20T10:30:03;42.10;;;26.55;;
80272;SDS011;69574;45.328;9.598;2023-12-20T10:32:28;46.33;;;27.33;;
80272;SDS011;69574;45.328;9.598;2023-12-20T10:34:54;46.17;;;29.92;;
80272;SDS011;69574;45.328;9.598;2023-12-20T10:37:22;51.63;;;31.30;;
80272;SDS011;69574;45.328;9.598;2023-12-20T10:39:49;56.47;;;35.55;;
80272;SDS011;69574;45.328;9.598;2023-12-20T10:42:16;58.25;;;35.75;;
80272;SDS011;69574;45.328;9.598;2023-12-20T10:44:41;53.80;;;31.58;;
80272;SDS011;69574;45.328;9.598;2023-12-20T10:47:07;53.78;;;32.70;;
80272;SDS011;69574;45.328;9.598;2023-12-20T10:49:36;57.92;;;34.15;;
80272;SDS011;69574;45.328;9.598;2023-12-20T10:52:02;52.40;;;33.20;;
80272;SDS011;69574;45.328;9.598;2023-12-20T10:54:30;52.92;;;34.13;;
80272;SDS011;69574;45.328;9.598;2023-12-20T10:59:21;54.87;;;31.17;;
80272;SDS011;69574;45.328;9.598;2023-12-20T11:01:48;48.90;;;31.23;;
80272;SDS011;69574;45.328;9.598;2023-12-20T11:04:15;48.25;;;28.77;;
80272;SDS011;69574;45.328;9.598;2023-12-20T11:06:45;42.97;;;27.23;;
80272;SDS011;69574;45.328;9.598;2023-12-20T11:09:16;42.90;;;27.88;;
80272;SDS011;69574;45.328;9.598;2023-12-20T11:11:48;42.65;;;26.45;;
80272;SDS011;69574;45.328;9.598;2023-12-20T11:14:19;42.20;;;26.92;;
80272;SDS011;69574;45.328;9.598;2023-12-20T11:16:45;41.67;;;26.05;;
80272;SDS011;69574;45.328;9.598;2023-12-20T11:19:11;37.85;;;25.13;;
80272;SDS011;69574;45.328;9.598;2023-12-20T11:21:39;42.60;;;26.50;;
80272;SDS011;69574;45.328;9.598;2023-12-20T11:24:05;38.55;;;24.67;;
80272;SDS011;69574;45.328;9.598;2023-12-20T11:26:31;38.50;;;24.55;;
80272;SDS011;69574;45.328;9.598;2023-12-20T11:29:07;42.47;;;26.48;;
80272;SDS011;69574;45.328;9.598;2023-12-20T11:31:52;36.42;;;23.77;;
80272;SDS011;69574;45.328;9.598;2023-12-20T11:36:45;38.40;;;23.83;;
80272;SDS011;69574;45.328;9.598;2023-12-20T11:39:10;39.05;;;25.02;;
80272;SDS011;69574;45.328;9.598;2023-12-20T11:41:36;38.80;;;24.42;;
80272;SDS011;69574;45.328;9.598;2023-12-20T11:44:01;37.63;;;23.70;;
80272;SDS011;69574;45.328;9.598;2023-12-20T11:46:31;39.25;;;25.33;;
80272;SDS011;69574;45.328;9.598;2023-12-20T11:48:56;36.88;;;23.85;;
80272;SDS011;69574;45.328;9.598;2023-12-20T11:51:22;37.08;;;22.50;;
80272;SDS011;69574;45.328;9.598;2023-12-20T11:53:51;38.28;;;24.48;;
80272;SDS011;69574;45.328;9.598;2023-12-20T11:56:16;35.65;;;23.48;;
80272;SDS011;69574;45.328;9.598;2023-12-20T11:58:42;38.03;;;24.85;;
80272;SDS011;69574;45.328;9.598;2023-12-20T12:01:08;35.97;;;22.88;;
80272;SDS011;69574;45.328;9.598;2023-12-20T12:03:35;36.15;;;23.67;;
80272;SDS011;69574;45.328;9.598;2023-12-20T12:06:01;37.83;;;24.38;;
80272;SDS011;69574;45.328;9.598;2023-12-20T12:08:29;35.45;;;23.13;;
80272;SDS011;69574;45.328;9.598;2023-12-20T12:10:55;35.50;;;22.75;;
80272;SDS011;69574;45.328;9.598;2023-12-20T12:13:21;32.25;;;21.40;;
80272;SDS011;69574;45.328;9.598;2023-12-20T12:15:47;34.40;;;21.83;;
80272;SDS011;69574;45.328;9.598;2023-12-20T12:18:15;32.50;;;20.42;;
80272;SDS011;69574;45.328;9.598;2023-12-20T12:20:42;32.13;;;20.10;;
80272;SDS011;69574;45.328;9.598;2023-12-20T12:25:35;30.58;;;19.17;;
80272;SDS011;69574;45.328;9.598;2023-12-20T12:28:00;26.50;;;18.52;;
80272;SDS011;69574;45.328;9.598;2023-12-20T12:30:26;28.50;;;18.83;;
80272;SDS011;69574;45.328;9.598;2023-12-20T12:32:52;30.50;;;19.10;;
80272;SDS011;69574;45.328;9.598;2023-12-20T12:35:18;27.92;;;19.20;;
80272;SDS011;69574;45.328;9.598;2023-12-20T12:37:46;27.48;;;18.98;;
80272;SDS011;69574;45.328;9.598;2023-12-20T12:40:12;30.30;;;20.05;;
80272;SDS011;69574;45.328;9.598;2023-12-20T12:42:44;31.75;;;19.98;;
80272;SDS011;69574;45.328;9.598;2023-12-20T12:45:10;27.85;;;19.83;;
80272;SDS011;69574;45.328;9.598;2023-12-20T12:47:39;30.63;;;20.25;;
80272;SDS011;69574;45.328;9.598;2023-12-20T12:50:05;29.25;;;17.98;;
80272;SDS011;69574;45.328;9.598;2023-12-20T12:52:31;28.25;;;19.02;;
80272;SDS011;69574;45.328;9.598;2023-12-20T12:54:58;28.35;;;20.10;;
80272;SDS011;69574;45.328;9.598;2023-12-20T12:59:49;30.60;;;20.00;;
80272;SDS011;69574;45.328;9.598;2023-12-20T13:02:15;30.02;;;20.05;;
80272;SDS011;69574;45.328;9.598;2023-12-20T13:04:41;31.17;;;20.75;;
80272;SDS011;69574;45.328;9.598;2023-12-20T13:07:07;35.25;;;21.60;;
80272;SDS011;69574;45.328;9.598;2023-12-20T13:09:33;32.55;;;21.60;;
80272;SDS011;69574;45.328;9.598;2023-12-20T13:12:00;33.03;;;21.45;;
80272;SDS011;69574;45.328;9.598;2023-12-20T13:14:28;34.33;;;21.52;;
80272;SDS011;69574;45.328;9.598;2023-12-20T13:16:54;33.08;;;21.10;;
80272;SDS011;69574;45.328;9.598;2023-12-20T13:19:21;31.40;;;21.58;;
80272;SDS011;69574;45.328;9.598;2023-12-20T13:21:47;32.88;;;20.95;;
80272;SDS011;69574;45.328;9.598;2023-12-20T13:24:12;28.88;;;20.10;;
80272;SDS011;69574;45.328;9.598;2023-12-20T13:26:38;31.10;;;21.73;;
80272;SDS011;69574;45.328;9.598;2023-12-20T13:29:05;30.10;;;21.15;;
80272;SDS011;69574;45.328;9.598;2023-12-20T13:33:56;30.85;;;20.25;;
80272;SDS011;69574;45.328;9.598;2023-12-20T13:36:22;32.15;;;21.15;;
80272;SDS011;69574;45.328;9.598;2023-12-20T13:38:47;32.40;;;20.98;;
80272;SDS011;69574;45.328;9.598;2023-12-20T13:41:13;33.53;;;21.63;;
80272;SDS011;69574;45.328;9.598;2023-12-20T13:43:39;33.65;;;23.20;;
80272;SDS011;69574;45.328;9.598;2023-12-20T13:46:06;37.47;;;24.42;;
80272;SDS011;69574;45.328;9.598;2023-12-20T13:48:32;38.65;;;24.35;;
80272;SDS011;69574;45.328;9.598;2023-12-20T13:50:57;35.03;;;23.70;;
80272;SDS011;69574;45.328;9.598;2023-12-20T13:53:23;34.40;;;23.63;;
80272;SDS011;69574;45.328;9.598;2023-12-20T13:55:49;35.95;;;24.83;;
80272;SDS011;69574;45.328;9.598;2023-12-20T13:58:15;40.28;;;26.10;;
80272;SDS011;69574;45.328;9.598;2023-12-20T14:00:40;36.80;;;24.80;;
80272;SDS011;69574;45.328;9.598;2023-12-20T14:03:08;37.50;;;24.58;;
80272;SDS011;69574;45.328;9.598;2023-12-20T14:05:35;39.60;;;25.10;;
80272;SDS011;69574;45.328;9.598;2023-12-20T14:08:01;38.05;;;24.80;;
80272;SDS011;69574;45.328;9.598;2023-12-20T14:10:27;34.50;;;23.85;;
80272;SDS011;69574;45.328;9.598;2023-12-20T14:12:53;37.95;;;24.63;;
80272;SDS011;69574;45.328;9.598;2023-12-20T14:15:18;38.47;;;25.25;;
80272;SDS011;69574;45.328;9.598;2023-12-20T14:17:44;36.78;;;25.25;;
80272;SDS011;69574;45.328;9.598;2023-12-20T14:20:11;39.00;;;26.00;;
80272;SDS011;69574;45.328;9.598;2023-12-20T14:22:40;38.42;;;25.73;;
80272;SDS011;69574;45.328;9.598;2023-12-20T14:25:10;37.92;;;24.33;;
80272;SDS011;69574;45.328;9.598;2023-12-20T14:27:36;38.05;;;25.08;;
80272;SDS011;69574;45.328;9.598;2023-12-20T14:30:02;35.35;;;22.95;;